La rose des vents
Donnes mto: Semaine 17/12/07 - 23/12/07 (S 51)
Date Horaire Temp. E. Hum. E. P.atmo. Pluie Vent 1mn Direction Ensoleilleme Ev.Tr. Solaire P. de rose Temp au vent Rafales
17/12/2007 00:00 1,9 C 49 % 1022,6 hPa 0,0 l/m 1,6 km/h (1 Bft) N-NO 0,00 h 0,051 mm 0 W/m -7,7 C 1,7 C 3,4 km/h (1 Bft)
17/12/2007 01:00 2,0 C 46 % 1022,2 hPa 0,0 l/m 1,4 km/h (1 Bft) N-NO 0,00 h 0,025 mm 0 W/m -8,5 C 2,0 C 3,4 km/h (1 Bft)
17/12/2007 02:00 2,0 C 46 % 1022,0 hPa 0,0 l/m 2,7 km/h (1 Bft) N 0,00 h 0,025 mm 0 W/m -8,4 C 1,6 C 4,9 km/h (1 Bft)
17/12/2007 03:00 2,5 C 43 % 1021,3 hPa 0,0 l/m 7,6 km/h (2 Bft) O 0,00 h 0,025 mm 0 W/m -8,9 C 0,4 C 10,0 km/h (2 Bft)
17/12/2007 04:00 3,4 C 40 % 1020,5 hPa 0,0 l/m 5,1 km/h (1 Bft) O 0,00 h 0,051 mm 0 W/m -8,8 C 2,2 C 7,5 km/h (2 Bft)
17/12/2007 05:00 2,9 C 42 % 1020,5 hPa 0,0 l/m 0,4 km/h (0 Bft) O-NO 0,00 h 0,051 mm 0 W/m -8,8 C 2,9 C 1,2 km/h (1 Bft)
17/12/2007 06:00 3,1 C 41 % 1020,5 hPa 0,0 l/m 2,9 km/h (1 Bft) O-NO 0,00 h 0,025 mm 0 W/m -8,9 C 2,7 C 3,6 km/h (1 Bft)
17/12/2007 07:00 3,4 C 41 % 1020,4 hPa 0,0 l/m 3,8 km/h (1 Bft) O-NO 0,00 h 0,051 mm 0 W/m -8,5 C 2,8 C 5,9 km/h (2 Bft)
17/12/2007 08:00 2,8 C 44 % 1020,5 hPa 0,0 l/m 5,2 km/h (1 Bft) O-NO 0,00 h 0,025 mm 13 W/m -8,3 C 1,6 C 7,4 km/h (2 Bft)
17/12/2007 09:00 3,2 C 44 % 1020,8 hPa 0,0 l/m 5,1 km/h (1 Bft) NO 0,18 h 0,025 mm 81 W/m -8,0 C 2,0 C 7,8 km/h (2 Bft)
17/12/2007 10:00 5,6 C 38 % 1021,2 hPa 0,0 l/m 4,9 km/h (1 Bft) O-NO 0,52 h 0,051 mm 208 W/m -7,6 C 4,7 C 7,0 km/h (2 Bft)
17/12/2007 11:00 8,3 C 31 % 1021,0 hPa 0,0 l/m 2,1 km/h (1 Bft) SO 0,63 h 0,127 mm 279 W/m -8,0 C 8,2 C 3,7 km/h (1 Bft)
17/12/2007 12:00 7,6 C 35 % 1020,7 hPa 0,0 l/m 6,1 km/h (2 Bft) SO 0,08 h 0,152 mm 160 W/m -6,9 C 6,7 C 7,9 km/h (2 Bft)
17/12/2007 13:00 8,4 C 31 % 1020,5 hPa 0,0 l/m 5,1 km/h (1 Bft) SO 0,78 h 0,127 mm 219 W/m -7,6 C 7,9 C 7,2 km/h (2 Bft)
17/12/2007 14:00 8,7 C 32 % 1020,5 hPa 0,0 l/m 3,4 km/h (1 Bft) SO 0,82 h 0,127 mm 189 W/m -7,1 C 8,5 C 5,3 km/h (1 Bft)
17/12/2007 15:00 8,2 C 35 % 1020,9 hPa 0,0 l/m 1,0 km/h (0 Bft) SO 0,00 h 0,127 mm 78 W/m -6,4 C 8,2 C 1,9 km/h (1 Bft)
17/12/2007 16:00 6,6 C 40 % 1021,2 hPa 0,0 l/m 3,8 km/h (1 Bft) O-NO 0,08 h 0,051 mm 21 W/m -6,1 C 6,3 C 5,7 km/h (1 Bft)
17/12/2007 17:00 5,1 C 45 % 1021,7 hPa 0,0 l/m 2,7 km/h (1 Bft) O-NO 0,00 h 0,051 mm 0 W/m -5,9 C 4,9 C 4,3 km/h (1 Bft)
17/12/2007 18:00 4,3 C 44 % 1022,1 hPa 0,0 l/m 1,5 km/h (1 Bft) NE 0,00 h 0,025 mm 0 W/m -6,8 C 4,2 C 3,3 km/h (1 Bft)
17/12/2007 19:00 4,2 C 38 % 1022,4 hPa 0,0 l/m 1,8 km/h (1 Bft) N 0,00 h 0,025 mm 0 W/m -8,8 C 4,1 C 3,3 km/h (1 Bft)
17/12/2007 20:00 3,5 C 41 % 1022,8 hPa 0,0 l/m 3,1 km/h (1 Bft) N-NO 0,00 h 0,051 mm 0 W/m -8,6 C 3,1 C 5,6 km/h (1 Bft)
17/12/2007 21:00 4,3 C 36 % 1022,9 hPa 0,0 l/m 3,5 km/h (1 Bft) N 0,00 h 0,051 mm 0 W/m -9,5 C 3,8 C 6,2 km/h (2 Bft)
17/12/2007 22:00 4,2 C 35 % 1023,1 hPa 0,0 l/m 2,6 km/h (1 Bft) N-NE 0,00 h 0,051 mm 0 W/m -9,9 C 4,0 C 4,9 km/h (1 Bft)
17/12/2007 23:00 4,6 C 35 % 1023,3 hPa 0,0 l/m 3,9 km/h (1 Bft) N 0,00 h 0,051 mm 0 W/m -9,5 C 4,0 C 6,4 km/h (2 Bft)
18/12/2007 00:00 3,8 C 39 % 1023,6 hPa 0,0 l/m 2,8 km/h (1 Bft) N 0,00 h 0,051 mm 0 W/m -9,0 C 3,5 C 5,0 km/h (1 Bft)
18/12/2007 01:00 3,8 C 39 % 1023,3 hPa 0,0 l/m 5,1 km/h (1 Bft) O-NO 0,00 h 0,051 mm 0 W/m -8,9 C 2,7 C 7,6 km/h (2 Bft)
18/12/2007 02:00 4,5 C 38 % 1023,1 hPa 0,0 l/m 6,4 km/h (2 Bft) O-NO 0,00 h 0,051 mm 0 W/m -8,4 C 3,1 C 8,9 km/h (2 Bft)
18/12/2007 03:00 4,7 C 37 % 1023,2 hPa 0,0 l/m 8,8 km/h (2 Bft) O-NO 0,00 h 0,051 mm 0 W/m -8,8 C 2,6 C 11,6 km/h (2 Bft)
18/12/2007 04:00 4,6 C 40 % 1023,2 hPa 0,0 l/m 11,0 km/h (2 Bft) O-NO 0,00 h 0,076 mm 0 W/m -7,7 C 2,0 C 15,3 km/h (3 Bft)
18/12/2007 05:00 5,1 C 39 % 1023,2 hPa 0,0 l/m 12,0 km/h (2 Bft) O-NO 0,00 h 0,076 mm 0 W/m -7,6 C 2,4 C 16,1 km/h (3 Bft)
18/12/2007 06:00 5,2 C 39 % 1023,4 hPa 0,0 l/m 10,4 km/h (2 Bft) O-NO 0,00 h 0,076 mm 0 W/m -7,5 C 2,8 C 13,8 km/h (3 Bft)
18/12/2007 07:00 5,7 C 37 % 1023,6 hPa 0,0 l/m 10,9 km/h (2 Bft) O-NO 0,00 h 0,076 mm 0 W/m -7,9 C 3,4 C 14,5 km/h (3 Bft)
18/12/2007 08:00 5,9 C 36 % 1023,8 hPa 0,0 l/m 11,1 km/h (2 Bft) O-NO 0,00 h 0,076 mm 23 W/m -8,0 C 3,6 C 14,9 km/h (3 Bft)
18/12/2007 09:00 6,5 C 37 % 1024,4 hPa 0,0 l/m 8,7 km/h (2 Bft) O 0,00 h 0,076 mm 66 W/m -7,2 C 4,8 C 12,1 km/h (2 Bft)
18/12/2007 10:00 7,4 C 42 % 1025,2 hPa 0,0 l/m 7,6 km/h (2 Bft) O 0,02 h 0,076 mm 123 W/m -4,6 C 6,0 C 11,1 km/h (2 Bft)
18/12/2007 11:00 8,9 C 40 % 1025,4 hPa 0,0 l/m 10,2 km/h (2 Bft) O-SO 0,53 h 0,102 mm 255 W/m -4,0 C 7,5 C 14,8 km/h (3 Bft)
18/12/2007 12:00 10,3 C 31 % 1024,8 hPa 0,0 l/m 17,4 km/h (3 Bft) SO 1,00 h 0,178 mm 370 W/m -6,0 C 10,2 C 23,6 km/h (4 Bft)
18/12/2007 13:00 10,5 C 30 % 1024,6 hPa 0,0 l/m 20,4 km/h (4 Bft) SO 1,00 h 0,305 mm 362 W/m -6,6 C 10,5 C 26,8 km/h (4 Bft)
18/12/2007 14:00 10,6 C 28 % 1025,0 hPa 0,0 l/m 15,0 km/h (3 Bft) SO 1,00 h 0,330 mm 262 W/m -7,2 C 10,6 C 19,6 km/h (3 Bft)
18/12/2007 15:00 10,1 C 32 % 1025,5 hPa 0,0 l/m 14,0 km/h (3 Bft) S-SO 1,00 h 0,254 mm 159 W/m -5,9 C 9,5 C 18,3 km/h (3 Bft)
18/12/2007 16:00 8,8 C 38 % 1026,0 hPa 0,0 l/m 13,8 km/h (3 Bft) O-SO 0,77 h 0,178 mm 43 W/m -4,7 C 6,6 C 17,8 km/h (3 Bft)
18/12/2007 17:00 6,9 C 45 % 1026,4 hPa 0,0 l/m 12,5 km/h (3 Bft) O 0,00 h 0,102 mm 0 W/m -4,2 C 4,5 C 18,3 km/h (3 Bft)
18/12/2007 18:00 6,5 C 44 % 1026,8 hPa 0,0 l/m 14,0 km/h (3 Bft) O 0,00 h 0,076 mm 0 W/m -4,8 C 3,8 C 18,6 km/h (3 Bft)
18/12/2007 19:00 6,0 C 43 % 1027,3 hPa 0,0 l/m 12,2 km/h (2 Bft) O-NO 0,00 h 0,102 mm 0 W/m -5,6 C 3,4 C 16,7 km/h (3 Bft)
18/12/2007 20:00 5,6 C 44 % 1027,8 hPa 0,0 l/m 12,5 km/h (3 Bft) O-NO 0,00 h 0,076 mm 0 W/m -5,8 C 2,9 C 16,4 km/h (3 Bft)
18/12/2007 21:00 5,1 C 45 % 1028,3 hPa 0,0 l/m 10,7 km/h (2 Bft) O-NO 0,00 h 0,076 mm 0 W/m -5,9 C 2,7 C 14,6 km/h (3 Bft)
18/12/2007 22:00 4,9 C 45 % 1028,6 hPa 0,0 l/m 6,2 km/h (2 Bft) O-NO 0,00 h 0,076 mm 0 W/m -6,0 C 3,7 C 9,0 km/h (2 Bft)
18/12/2007 23:00 4,6 C 45 % 1028,8 hPa 0,0 l/m 5,4 km/h (1 Bft) O-NO 0,00 h 0,051 mm 0 W/m -6,3 C 3,5 C 7,6 km/h (2 Bft)
19/12/2007 00:00 4,6 C 46 % 1029,0 hPa 0,0 l/m 6,1 km/h (2 Bft) NO 0,00 h 0,051 mm 0 W/m -6,1 C 3,2 C 10,0 km/h (2 Bft)
19/12/2007 01:00 4,9 C 45 % 1029,0 hPa 0,0 l/m 5,8 km/h (2 Bft) O-NO 0,00 h 0,051 mm 0 W/m -6,1 C 3,8 C 9,0 km/h (2 Bft)
19/12/2007 02:00 4,7 C 45 % 1029,1 hPa 0,0 l/m 4,6 km/h (1 Bft) NO 0,00 h 0,051 mm 0 W/m -6,1 C 4,0 C 6,9 km/h (2 Bft)
19/12/2007 03:00 4,6 C 45 % 1029,5 hPa 0,0 l/m 5,5 km/h (1 Bft) O-NO 0,00 h 0,051 mm 0 W/m -6,2 C 3,5 C 7,8 km/h (2 Bft)
19/12/2007 04:00 4,4 C 46 % 1029,8 hPa 0,0 l/m 6,4 km/h (2 Bft) O-NO 0,00 h 0,051 mm 0 W/m -6,2 C 2,9 C 9,2 km/h (2 Bft)
19/12/2007 05:00 4,2 C 46 % 1030,1 hPa 0,0 l/m 7,7 km/h (2 Bft) O-NO 0,00 h 0,051 mm 0 W/m -6,2 C 2,3 C 10,8 km/h (2 Bft)
19/12/2007 06:00 4,5 C 45 % 1030,5 hPa 0,0 l/m 10,0 km/h (2 Bft) O-NO 0,00 h 0,051 mm 0 W/m -6,5 C 2,1 C 14,1 km/h (3 Bft)
19/12/2007 07:00 4,3 C 45 % 1030,9 hPa 0,0 l/m 7,2 km/h (2 Bft) O-NO 0,00 h 0,076 mm 5 W/m -6,7 C 2,6 C 10,6 km/h (2 Bft)
19/12/2007 08:00 5,3 C 42 % 1031,3 hPa 0,0 l/m 7,7 km/h (2 Bft) O-NO 0,80 h 0,051 mm 49 W/m -6,5 C 3,6 C 11,2 km/h (2 Bft)
19/12/2007 09:00 7,8 C 35 % 1031,6 hPa 0,0 l/m 1,9 km/h (1 Bft) O-NO 1,00 h 0,076 mm 172 W/m -6,6 C 7,6 C 3,2 km/h (1 Bft)
19/12/2007 10:00 10,5 C 33 % 1031,9 hPa 0,0 l/m 0,1 km/h (0 Bft) O-NO 1,00 h 0,102 mm 279 W/m -5,1 C 10,5 C 0,4 km/h (0 Bft)
19/12/2007 11:00 12,1 C 32 % 1031,9 hPa 0,0 l/m 5,9 km/h (2 Bft) SO 1,00 h 0,152 mm 350 W/m -3,9 C 12,1 C 8,4 km/h (2 Bft)
19/12/2007 12:00 12,4 C 31 % 1031,8 hPa 0,0 l/m 8,2 km/h (2 Bft) SO 1,00 h 0,229 mm 370 W/m -4,2 C 12,4 C 11,8 km/h (2 Bft)
19/12/2007 13:00 12,9 C 28 % 1031,3 hPa 0,0 l/m 5,2 km/h (1 Bft) S 1,00 h 0,254 mm 340 W/m -5,0 C 12,9 C 8,1 km/h (2 Bft)
19/12/2007 14:00 12,7 C 31 % 1030,9 hPa 0,0 l/m 6,4 km/h (2 Bft) S 1,00 h 0,229 mm 264 W/m -4,1 C 12,7 C 9,1 km/h (2 Bft)
19/12/2007 15:00 12,0 C 35 % 1030,9 hPa 0,0 l/m 9,2 km/h (2 Bft) S 1,00 h 0,178 mm 156 W/m -2,9 C 12,0 C 12,5 km/h (3 Bft)
19/12/2007 16:00 10,4 C 42 % 1031,3 hPa 0,0 l/m 8,1 km/h (2 Bft) O-SO 0,77 h 0,152 mm 41 W/m -1,9 C 10,1 C 10,5 km/h (2 Bft)
19/12/2007 17:00 8,2 C 49 % 1031,6 hPa 0,0 l/m 7,0 km/h (2 Bft) O-NO 0,00 h 0,076 mm 0 W/m -1,9 C 7,2 C 9,1 km/h (2 Bft)
19/12/2007 18:00 6,6 C 51 % 1031,7 hPa 0,0 l/m 8,0 km/h (2 Bft) O-NO 0,00 h 0,051 mm 0 W/m -2,9 C 5,0 C 10,6 km/h (2 Bft)
19/12/2007 19:00 6,1 C 49 % 1032,0 hPa 0,0 l/m 5,8 km/h (2 Bft) NO 0,00 h 0,051 mm 0 W/m -3,8 C 5,1 C 8,1 km/h (2 Bft)
19/12/2007 20:00 6,0 C 48 % 1032,1 hPa 0,0 l/m 3,6 km/h (1 Bft) NO 0,00 h 0,051 mm 0 W/m -4,1 C 5,7 C 5,5 km/h (1 Bft)
19/12/2007 21:00 5,9 C 47 % 1032,0 hPa 0,0 l/m 4,5 km/h (1 Bft) NO 0,00 h 0,051 mm 0 W/m -4,6 C 5,3 C 6,0 km/h (2 Bft)
19/12/2007 22:00 5,9 C 45 % 1031,9 hPa 0,0 l/m 4,6 km/h (1 Bft) NO 0,00 h 0,051 mm 0 W/m -5,1 C 5,2 C 6,1 km/h (2 Bft)
19/12/2007 23:00 5,8 C 44 % 1031,9 hPa 0,0 l/m 5,1 km/h (1 Bft) O-NO 0,00 h 0,051 mm 0 W/m -5,6 C 4,9 C 6,7 km/h (2 Bft)
20/12/2007 00:00 6,2 C 40 % 1031,6 hPa 0,0 l/m 4,7 km/h (1 Bft) NO 0,00 h 0,051 mm 0 W/m -6,4 C 5,5 C 6,1 km/h (2 Bft)
20/12/2007 01:00 6,1 C 40 % 1031,1 hPa 0,0 l/m 4,7 km/h (1 Bft) NO 0,00 h 0,051 mm 0 W/m -6,5 C 5,5 C 6,1 km/h (2 Bft)
20/12/2007 02:00 6,0 C 39 % 1030,9 hPa 0,0 l/m 4,2 km/h (1 Bft) NO 0,00 h 0,051 mm 0 W/m -7,0 C 5,5 C 6,3 km/h (2 Bft)
20/12/2007 03:00 6,3 C 37 % 1031,3 hPa 0,0 l/m 5,4 km/h (1 Bft) NO 0,00 h 0,051 mm 0 W/m -7,2 C 5,5 C 7,8 km/h (2 Bft)
20/12/2007 04:00 6,1 C 40 % 1031,6 hPa 0,0 l/m 5,4 km/h (1 Bft) NO 0,00 h 0,051 mm 0 W/m -6,6 C 5,2 C 7,1 km/h (2 Bft)
20/12/2007 05:00 6,2 C 44 % 1031,6 hPa 0,0 l/m 5,5 km/h (1 Bft) N-NO 0,00 h 0,051 mm 0 W/m -5,2 C 5,3 C 7,6 km/h (2 Bft)
20/12/2007 06:00 5,8 C 51 % 1031,5 hPa 0,0 l/m 5,3 km/h (1 Bft) N-NO 0,00 h 0,051 mm 0 W/m -3,7 C 4,9 C 7,5 km/h (2 Bft)
20/12/2007 07:00 5,9 C 51 % 1031,5 hPa 0,0 l/m 5,4 km/h (1 Bft) NO 0,00 h 0,051 mm 5 W/m -3,3 C 5,0 C 7,3 km/h (2 Bft)
20/12/2007 08:00 6,1 C 53 % 1031,7 hPa 0,0 l/m 3,8 km/h (1 Bft) NO 0,78 h 0,025 mm 47 W/m -2,7 C 5,6 C 6,0 km/h (2 Bft)
20/12/2007 09:00 9,1 C 49 % 1032,3 hPa 0,0 l/m 2,0 km/h (1 Bft) N-NO 1,00 h 0,051 mm 165 W/m -1,1 C 9,0 C 4,7 km/h (1 Bft)
20/12/2007 10:00 10,4 C 54 % 1032,6 hPa 0,0 l/m 1,5 km/h (1 Bft) N-NO 1,00 h 0,102 mm 269 W/m 1,5 C 10,4 C 3,9 km/h (1 Bft)
20/12/2007 11:00 11,9 C 59 % 1032,1 hPa 0,0 l/m 7,3 km/h (2 Bft) NE 1,00 h 0,152 mm 342 W/m 4,2 C 11,9 C 10,6 km/h (2 Bft)
20/12/2007 12:00 12,4 C 60 % 1031,3 hPa 0,0 l/m 9,8 km/h (2 Bft) E-NE 1,00 h 0,203 mm 366 W/m 4,9 C 12,4 C 14,4 km/h (3 Bft)
20/12/2007 13:00 12,5 C 59 % 1030,7 hPa 0,0 l/m 10,5 km/h (2 Bft) E-NE 1,00 h 0,229 mm 339 W/m 4,8 C 12,5 C 14,9 km/h (3 Bft)
20/12/2007 14:00 12,5 C 62 % 1030,2 hPa 0,0 l/m 6,0 km/h (2 Bft) E 1,00 h 0,229 mm 262 W/m 5,4 C 12,5 C 9,6 km/h (2 Bft)
20/12/2007 15:00 11,6 C 64 % 1030,1 hPa 0,0 l/m 5,4 km/h (1 Bft) E 0,83 h 0,152 mm 142 W/m 5,1 C 11,6 C 8,7 km/h (2 Bft)
20/12/2007 16:00 9,4 C 74 % 1029,9 hPa 0,0 l/m 3,8 km/h (1 Bft) E-NE 0,00 h 0,102 mm 18 W/m 4,9 C 9,3 C 5,8 km/h (2 Bft)
20/12/2007 17:00 8,0 C 77 % 1029,9 hPa 0,0 l/m 1,6 km/h (1 Bft) NE 0,00 h 0,025 mm 0 W/m 4,2 C 7,9 C 3,7 km/h (1 Bft)
20/12/2007 18:00 7,2 C 80 % 1029,6 hPa 0,0 l/m 2,8 km/h (1 Bft) N-NO 0,00 h 0,000 mm 0 W/m 4,0 C 7,0 C 4,9 km/h (1 Bft)
20/12/2007 19:00 6,8 C 82 % 1029,5 hPa 0,0 l/m 3,6 km/h (1 Bft) N-NO 0,00 h 0,025 mm 0 W/m 3,9 C 6,5 C 5,8 km/h (2 Bft)
20/12/2007 20:00 6,2 C 82 % 1029,9 hPa 0,0 l/m 4,6 km/h (1 Bft) NO 0,00 h 0,025 mm 0 W/m 3,4 C 5,6 C 6,5 km/h (2 Bft)
20/12/2007 21:00 6,2 C 82 % 1030,2 hPa 0,0 l/m 4,9 km/h (1 Bft) N-NO 0,00 h 0,025 mm 0 W/m 3,4 C 5,5 C 6,8 km/h (2 Bft)
20/12/2007 22:00 6,0 C 80 % 1030,1 hPa 0,0 l/m 4,2 km/h (1 Bft) N-NO 0,00 h 0,025 mm 0 W/m 2,9 C 5,5 C 6,9 km/h (2 Bft)
20/12/2007 23:00 5,4 C 78 % 1029,7 hPa 0,0 l/m 2,4 km/h (1 Bft) N-NO 0,00 h 0,025 mm 0 W/m 2,0 C 5,4 C 4,8 km/h (1 Bft)
21/12/2007 00:00 5,0 C 81 % 1029,4 hPa 0,0 l/m 1,8 km/h (1 Bft) N-NO 0,00 h 0,025 mm 0 W/m 1,9 C 4,9 C 4,2 km/h (1 Bft)
21/12/2007 01:00 4,7 C 79 % 1028,9 hPa 0,0 l/m 3,1 km/h (1 Bft) N 0,00 h 0,025 mm 0 W/m 1,4 C 4,5 C 5,5 km/h (1 Bft)
21/12/2007 02:00 5,1 C 77 % 1028,3 hPa 0,0 l/m 3,9 km/h (1 Bft) N 0,00 h 0,025 mm 0 W/m 1,4 C 4,6 C 6,9 km/h (2 Bft)
21/12/2007 03:00 4,8 C 74 % 1027,9 hPa 0,0 l/m 2,7 km/h (1 Bft) N 0,00 h 0,025 mm 0 W/m 0,6 C 4,6 C 5,3 km/h (1 Bft)
21/12/2007 04:00 4,5 C 73 % 1027,8 hPa 0,0 l/m 1,4 km/h (1 Bft) N 0,00 h 0,025 mm 0 W/m 0,0 C 4,5 C 3,4 km/h (1 Bft)
21/12/2007 05:00 5,2 C 67 % 1027,9 hPa 0,0 l/m 4,0 km/h (1 Bft) N 0,00 h 0,025 mm 0 W/m -0,5 C 4,6 C 6,4 km/h (2 Bft)
21/12/2007 06:00 5,4 C 64 % 1028,1 hPa 0,0 l/m 4,2 km/h (1 Bft) N-NO 0,00 h 0,025 mm 0 W/m -0,7 C 4,9 C 6,9 km/h (2 Bft)
21/12/2007 07:00 5,4 C 71 % 1028,0 hPa 0,0 l/m 4,8 km/h (1 Bft) N 0,00 h 0,025 mm 5 W/m 0,6 C 4,7 C 7,8 km/h (2 Bft)
21/12/2007 08:00 6,5 C 74 % 1027,9 hPa 0,0 l/m 5,7 km/h (1 Bft) N 0,72 h 0,025 mm 44 W/m 2,2 C 5,6 C 8,4 km/h (2 Bft)
21/12/2007 09:00 8,3 C 67 % 1028,0 hPa 0,0 l/m 6,1 km/h (2 Bft) N-NE 0,28 h 0,025 mm 96 W/m 2,4 C 7,5 C 9,1 km/h (2 Bft)
21/12/2007 10:00 9,2 C 69 % 1028,4 hPa 0,0 l/m 7,9 km/h (2 Bft) N-NE 0,15 h 0,076 mm 131 W/m 3,7 C 8,1 C 11,6 km/h (2 Bft)
21/12/2007 11:00 10,2 C 72 % 1028,2 hPa 0,0 l/m 10,8 km/h (2 Bft) NE 0,28 h 0,102 mm 191 W/m 5,4 C 10,1 C 17,0 km/h (3 Bft)
21/12/2007 12:00 10,4 C 73 % 1027,7 hPa 0,0 l/m 10,0 km/h (2 Bft) E-NE 0,00 h 0,127 mm 126 W/m 5,7 C 10,2 C 14,7 km/h (3 Bft)
21/12/2007 13:00 10,6 C 73 % 1027,2 hPa 0,0 l/m 17,3 km/h (3 Bft) E-NE 0,02 h 0,102 mm 106 W/m 6,1 C 10,6 C 23,2 km/h (4 Bft)
21/12/2007 14:00 10,9 C 71 % 1026,6 hPa 0,0 l/m 17,5 km/h (3 Bft) E-NE 0,13 h 0,102 mm 129 W/m 6,0 C 10,9 C 23,3 km/h (4 Bft)
21/12/2007 15:00 10,4 C 72 % 1026,4 hPa 0,0 l/m 14,6 km/h (3 Bft) E-NE 0,00 h 0,127 mm 29 W/m 5,5 C 10,4 C 20,0 km/h (4 Bft)
21/12/2007 16:00 10,1 C 71 % 1026,4 hPa 0,0 l/m 13,3 km/h (3 Bft) E-NE 0,23 h 0,076 mm 24 W/m 5,1 C 9,4 C 18,9 km/h (3 Bft)
21/12/2007 17:00 9,6 C 71 % 1026,5 hPa 0,0 l/m 11,5 km/h (2 Bft) NE 0,00 h 0,051 mm 0 W/m 4,6 C 8,0 C 16,3 km/h (3 Bft)
21/12/2007 18:00 9,1 C 72 % 1026,5 hPa 0,0 l/m 9,7 km/h (2 Bft) NE 0,00 h 0,051 mm 0 W/m 4,4 C 7,7 C 14,5 km/h (3 Bft)
21/12/2007 19:00 8,3 C 73 % 1026,8 hPa 0,0 l/m 7,0 km/h (2 Bft) NE 0,00 h 0,051 mm 0 W/m 3,8 C 7,4 C 10,1 km/h (2 Bft)
21/12/2007 20:00 7,3 C 76 % 1027,1 hPa 0,0 l/m 6,1 km/h (2 Bft) E-NE 0,00 h 0,025 mm 0 W/m 3,4 C 6,4 C 8,5 km/h (2 Bft)
21/12/2007 21:00 7,9 C 73 % 1026,9 hPa 0,0 l/m 7,9 km/h (2 Bft) NE 0,00 h 0,025 mm 0 W/m 3,3 C 6,6 C 11,8 km/h (2 Bft)
21/12/2007 22:00 7,7 C 71 % 1026,6 hPa 0,0 l/m 3,3 km/h (1 Bft) N-NE 0,00 h 0,025 mm 0 W/m 2,9 C 7,5 C 5,4 km/h (1 Bft)
21/12/2007 23:00 7,8 C 65 % 1026,6 hPa 0,0 l/m 2,9 km/h (1 Bft) N-NE 0,00 h 0,025 mm 0 W/m 1,7 C 7,6 C 4,6 km/h (1 Bft)
22/12/2007 00:00 8,5 C 58 % 1026,4 hPa 0,0 l/m 5,3 km/h (1 Bft) NE 0,00 h 0,025 mm 0 W/m 0,8 C 7,9 C 8,2 km/h (2 Bft)
22/12/2007 01:00 8,8 C 56 % 1026,1 hPa 0,0 l/m 4,7 km/h (1 Bft) N-NE 0,00 h 0,051 mm 0 W/m 0,5 C 8,4 C 7,6 km/h (2 Bft)
22/12/2007 02:00 8,8 C 55 % 1025,7 hPa 0,0 l/m 3,3 km/h (1 Bft) N 0,00 h 0,051 mm 0 W/m 0,4 C 8,6 C 5,6 km/h (1 Bft)
22/12/2007 03:00 8,8 C 57 % 1025,6 hPa 0,0 l/m 5,3 km/h (1 Bft) E-NE 0,00 h 0,051 mm 0 W/m 0,7 C 8,2 C 8,0 km/h (2 Bft)
22/12/2007 04:00 8,7 C 59 % 1025,4 hPa 0,2 l/m 9,4 km/h (2 Bft) E-NE 0,00 h 0,051 mm 0 W/m 1,2 C 7,3 C 13,7 km/h (3 Bft)
22/12/2007 05:00 7,7 C 67 % 1024,9 hPa 0,0 l/m 3,7 km/h (1 Bft) N 0,00 h 0,051 mm 0 W/m 1,9 C 7,4 C 6,4 km/h (2 Bft)
22/12/2007 06:00 8,5 C 58 % 1024,8 hPa 0,0 l/m 5,8 km/h (2 Bft) E-NE 0,00 h 0,025 mm 0 W/m 0,8 C 7,8 C 8,3 km/h (2 Bft)
22/12/2007 07:00 8,6 C 64 % 1025,4 hPa 0,0 l/m 8,1 km/h (2 Bft) E-NE 0,00 h 0,051 mm 0 W/m 2,1 C 7,4 C 12,0 km/h (2 Bft)
22/12/2007 08:00 7,6 C 76 % 1025,5 hPa 0,4 l/m 6,6 km/h (2 Bft) N-NE 0,00 h 0,025 mm 10 W/m 3,5 C 6,6 C 10,8 km/h (2 Bft)
22/12/2007 09:00 8,1 C 80 % 1025,6 hPa 0,8 l/m 11,2 km/h (2 Bft) N-NE 0,00 h 0,025 mm 35 W/m 4,9 C 6,1 C 17,2 km/h (3 Bft)
22/12/2007 10:00 7,9 C 84 % 1025,9 hPa 1,0 l/m 10,3 km/h (2 Bft) N-NE 0,00 h 0,051 mm 28 W/m 5,4 C 6,1 C 16,5 km/h (3 Bft)
22/12/2007 11:00 7,8 C 89 % 1025,5 hPa 1,4 l/m 12,7 km/h (3 Bft) N-NE 0,00 h 0,025 mm 40 W/m 6,0 C 5,6 C 20,6 km/h (4 Bft)
22/12/2007 12:00 8,1 C 90 % 1024,7 hPa 1,4 l/m 13,1 km/h (3 Bft) N 0,00 h 0,051 mm 64 W/m 6,6 C 5,9 C 21,4 km/h (4 Bft)
22/12/2007 13:00 8,2 C 89 % 1023,9 hPa 0,0 l/m 14,2 km/h (3 Bft) N-NE 0,00 h 0,051 mm 30 W/m 6,5 C 5,8 C 23,1 km/h (4 Bft)
22/12/2007 14:00 8,5 C 86 % 1023,4 hPa 0,4 l/m 12,4 km/h (3 Bft) N-NE 0,00 h 0,025 mm 20 W/m 6,3 C 6,4 C 19,9 km/h (4 Bft)
22/12/2007 15:00 8,8 C 82 % 1023,5 hPa 0,2 l/m 11,6 km/h (2 Bft) N-NE 0,00 h 0,025 mm 9 W/m 5,9 C 6,9 C 18,3 km/h (3 Bft)
22/12/2007 16:00 8,7 C 82 % 1023,7 hPa 0,2 l/m 6,9 km/h (2 Bft) N-NE 0,00 h 0,025 mm 6 W/m 5,8 C 7,8 C 11,2 km/h (2 Bft)
22/12/2007 17:00 8,3 C 86 % 1023,9 hPa 0,6 l/m 6,2 km/h (2 Bft) N-NE 0,00 h 0,025 mm 0 W/m 6,0 C 7,4 C 9,7 km/h (2 Bft)
22/12/2007 18:00 7,9 C 88 % 1023,8 hPa 0,8 l/m 4,9 km/h (1 Bft) NE 0,00 h 0,025 mm 0 W/m 6,1 C 7,4 C 7,1 km/h (2 Bft)
22/12/2007 19:00 7,5 C 90 % 1023,9 hPa 0,4 l/m 3,7 km/h (1 Bft) NE 0,00 h 0,025 mm 0 W/m 5,9 C 7,2 C 5,8 km/h (2 Bft)
22/12/2007 20:00 7,2 C 91 % 1024,2 hPa 0,2 l/m 5,5 km/h (1 Bft) NE 0,00 h 0,025 mm 0 W/m 5,9 C 6,5 C 7,5 km/h (2 Bft)
22/12/2007 21:00 7,2 C 92 % 1024,1 hPa 0,2 l/m 5,0 km/h (1 Bft) NE 0,00 h 0,025 mm 0 W/m 6,0 C 6,6 C 7,0 km/h (2 Bft)
22/12/2007 22:00 7,2 C 92 % 1024,3 hPa 0,2 l/m 4,8 km/h (1 Bft) NE 0,00 h 0,025 mm 0 W/m 6,1 C 6,6 C 6,7 km/h (2 Bft)
22/12/2007 23:00 7,3 C 93 % 1024,4 hPa 0,2 l/m 3,1 km/h (1 Bft) N-NE 0,00 h 0,025 mm 0 W/m 6,3 C 7,1 C 4,6 km/h (1 Bft)
23/12/2007 00:00 7,5 C 93 % 1024,1 hPa 0,4 l/m 2,3 km/h (1 Bft) N 0,00 h 0,000 mm 0 W/m 6,5 C 7,5 C 3,8 km/h (1 Bft)
23/12/2007 01:00 7,7 C 93 % 1023,6 hPa 0,2 l/m 1,6 km/h (1 Bft) N 0,00 h 0,000 mm 0 W/m 6,6 C 7,6 C 2,7 km/h (1 Bft)
23/12/2007 02:00 7,7 C 93 % 1023,4 hPa 0,0 l/m 1,5 km/h (1 Bft) N 0,00 h 0,000 mm 0 W/m 6,6 C 7,7 C 2,7 km/h (1 Bft)
23/12/2007 03:00 7,9 C 93 % 1023,3 hPa 0,0 l/m 1,2 km/h (1 Bft) N 0,00 h 0,000 mm 0 W/m 6,8 C 7,8 C 2,1 km/h (1 Bft)
23/12/2007 04:00 7,8 C 93 % 1023,0 hPa 0,2 l/m 2,0 km/h (1 Bft) N 0,00 h 0,000 mm 0 W/m 6,8 C 7,8 C 3,5 km/h (1 Bft)
23/12/2007 05:00 7,7 C 93 % 1022,9 hPa 0,2 l/m 3,3 km/h (1 Bft) N-NE 0,00 h 0,000 mm 0 W/m 6,7 C 7,4 C 4,8 km/h (1 Bft)
23/12/2007 06:00 7,8 C 93 % 1023,1 hPa 0,0 l/m 0,9 km/h (0 Bft) N 0,00 h 0,000 mm 0 W/m 6,7 C 7,8 C 1,7 km/h (1 Bft)
23/12/2007 07:00 7,9 C 93 % 1023,4 hPa 0,2 l/m 1,3 km/h (1 Bft) N 0,00 h 0,000 mm 0 W/m 6,9 C 7,9 C 2,1 km/h (1 Bft)
23/12/2007 08:00 8,0 C 93 % 1023,6 hPa 0,0 l/m 2,2 km/h (1 Bft) N 0,00 h 0,000 mm 10 W/m 6,9 C 7,9 C 4,1 km/h (1 Bft)
23/12/2007 09:00 8,1 C 93 % 1023,7 hPa 0,2 l/m 2,4 km/h (1 Bft) N 0,00 h 0,000 mm 40 W/m 7,0 C 8,0 C 3,9 km/h (1 Bft)
23/12/2007 10:00 8,9 C 93 % 1024,0 hPa 0,0 l/m 0,5 km/h (0 Bft) N 0,00 h 0,025 mm 70 W/m 7,8 C 8,9 C 1,0 km/h (0 Bft)
23/12/2007 11:00 8,9 C 92 % 1024,0 hPa 0,2 l/m 4,4 km/h (1 Bft) NE 0,00 h 0,025 mm 60 W/m 7,7 C 8,4 C 6,8 km/h (2 Bft)
23/12/2007 12:00 8,5 C 92 % 1023,7 hPa 0,4 l/m 5,3 km/h (1 Bft) N-NE 0,00 h 0,025 mm 64 W/m 7,3 C 8,0 C 8,4 km/h (2 Bft)
23/12/2007 13:00 8,6 C 92 % 1023,1 hPa 0,6 l/m 0,6 km/h (0 Bft) E-NE 0,00 h 0,025 mm 59 W/m 7,4 C 8,6 C 1,5 km/h (1 Bft)
23/12/2007 14:00 9,0 C 93 % 1022,4 hPa 0,8 l/m 0,6 km/h (0 Bft) E-NE 0,00 h 0,025 mm 48 W/m 8,0 C 9,0 C 1,4 km/h (1 Bft)
23/12/2007 15:00 9,0 C 93 % 1022,1 hPa 0,8 l/m 5,3 km/h (1 Bft) N 0,00 h 0,025 mm 29 W/m 7,9 C 8,5 C 8,6 km/h (2 Bft)
23/12/2007 16:00 8,8 C 93 % 1021,9 hPa 0,8 l/m 3,1 km/h (1 Bft) NE 0,00 h 0,025 mm 10 W/m 7,7 C 8,6 C 5,4 km/h (1 Bft)
23/12/2007 17:00 8,4 C 94 % 1022,0 hPa 0,8 l/m 5,7 km/h (1 Bft) NE 0,00 h 0,000 mm 0 W/m 7,5 C 7,8 C 8,1 km/h (2 Bft)
23/12/2007 18:00 8,4 C 94 % 1022,1 hPa 0,2 l/m 6,9 km/h (2 Bft) NE 0,00 h 0,000 mm 0 W/m 7,5 C 7,4 C 9,2 km/h (2 Bft)
23/12/2007 19:00 8,4 C 94 % 1022,4 hPa 0,4 l/m 6,4 km/h (2 Bft) NE 0,00 h 0,025 mm 0 W/m 7,5 C 7,5 C 9,5 km/h (2 Bft)
23/12/2007 20:00 8,4 C 94 % 1022,4 hPa 0,4 l/m 6,2 km/h (2 Bft) N 0,00 h 0,025 mm 0 W/m 7,5 C 7,6 C 9,7 km/h (2 Bft)
23/12/2007 21:00 8,4 C 95 % 1022,2 hPa 0,2 l/m 6,2 km/h (2 Bft) N 0,00 h 0,025 mm 0 W/m 7,6 C 7,6 C 10,4 km/h (2 Bft)
23/12/2007 22:00 8,8 C 94 % 1022,0 hPa 0,4 l/m 6,1 km/h (2 Bft) N 0,00 h 0,000 mm 0 W/m 7,9 C 8,1 C 9,9 km/h (2 Bft)
23/12/2007 23:00 8,6 C 94 % 1022,3 hPa 0,8 l/m 3,3 km/h (1 Bft) NE 0,00 h 0,000 mm 0 W/m 7,7 C 8,4 C 5,4 km/h (1 Bft)
Min-Date _ 17/12/07 19/12/07 17/12/07 - 17/12/07 - - - - 17/12/07 17/12/07 17/12/07
_ Min-Heure 00:00 13:25 05:00 - 00:05 - - - - 22:31 03:13 00:23
Minimum _ 1,6 C 26 % 1020,4 hPa - 0,0 km/h (0 Bft) - - - - -10,3 C -0,5 C 0,0 km/h (0 Bft)
Max-Date _ 19/12/07 23/12/07 20/12/07 22/12/07 18/12/07 - 17/12/07 18/12/07 18/12/07 23/12/07 19/12/07 18/12/07
_ Max-Heure 13:49 05:29 10:15 11:02 12:35 - 09:31 14:00 11:48 11:00 13:49 12:35
Maximum _ 13,1 C 95 % 1032,7 hPa 1,4 l/m 30,6 km/h
SO (5 Bft)
- 0,02 h 0,330 mm 487 W/m 8,3 C 13,1 C 38,6 km/h
SO (5 Bft)
Moyenne _ 7,2 C 60 % 1026,3 hPa #16,8 l/m 6,2 km/h (2 Bft) O-NO #26:25 h #10,403 mm 127 W/m -0,7 C 6,5 C 9,1 km/h (2 Bft)
Roquefort les pins